createdAt,value
2022-09-10T00:00:06.756Z,21.50
2022-09-10T00:02:33.543Z,21.50
2022-09-10T00:05:02.311Z,21.50
2022-09-10T00:07:29.457Z,21.50
2022-09-10T00:09:56.039Z,21.50
2022-09-10T00:12:22.650Z,21.60
2022-09-10T00:14:51.298Z,21.50
2022-09-10T00:17:17.922Z,21.50
2022-09-10T00:19:44.546Z,21.60
2022-09-10T00:22:12.224Z,21.60
2022-09-10T00:24:38.853Z,21.60
2022-09-10T00:27:06.310Z,21.60
2022-09-10T00:29:33.295Z,21.50
2022-09-10T00:31:59.909Z,21.50
2022-09-10T00:34:26.568Z,21.50
2022-09-10T00:36:53.206Z,21.50
2022-09-10T00:39:20.464Z,21.50
2022-09-10T00:41:48.009Z,21.50
2022-09-10T00:44:35.651Z,21.50
2022-09-10T00:47:02.615Z,21.50
2022-09-10T00:49:40.856Z,21.50
2022-09-10T00:52:07.717Z,21.50
2022-09-10T00:54:35.808Z,21.50
2022-09-10T00:57:12.495Z,21.50
2022-09-10T00:59:46.542Z,21.50
2022-09-10T01:02:13.406Z,21.60
2022-09-10T01:04:40.539Z,21.50
2022-09-10T01:07:09.803Z,21.60
2022-09-10T01:09:37.356Z,21.60
2022-09-10T01:12:08.083Z,21.60
2022-09-10T01:14:37.777Z,21.60
2022-09-10T01:17:04.338Z,21.60
2022-09-10T01:19:37.091Z,21.60
2022-09-10T01:22:28.366Z,21.60
2022-09-10T01:25:12.558Z,21.60
2022-09-10T01:27:42.590Z,21.50
2022-09-10T01:30:11.523Z,21.50
2022-09-10T01:32:51.487Z,21.50
2022-09-10T01:35:21.199Z,21.50
2022-09-10T01:37:48.921Z,21.50
2022-09-10T01:40:17.546Z,21.50
2022-09-10T01:42:45.510Z,21.50
2022-09-10T01:45:13.470Z,21.50
2022-09-10T01:47:52.868Z,21.50
2022-09-10T01:50:25.229Z,21.50
2022-09-10T01:52:51.810Z,21.50
2022-09-10T01:55:32.067Z,21.50
2022-09-10T01:58:00.926Z,21.60
2022-09-10T02:00:27.799Z,21.60
2022-09-10T02:03:11.317Z,21.60
2022-09-10T02:05:39.584Z,21.60
2022-09-10T02:08:09.899Z,21.60
2022-09-10T02:10:47.749Z,21.60
2022-09-10T02:13:14.341Z,21.50
2022-09-10T02:15:41.243Z,21.50
2022-09-10T02:18:07.912Z,21.50
2022-09-10T02:20:34.540Z,21.50
2022-09-10T02:23:02.038Z,21.60
2022-09-10T02:25:31.785Z,21.50
2022-09-10T02:27:58.604Z,21.50
2022-09-10T02:30:25.358Z,21.50
2022-09-10T02:32:51.998Z,21.50
2022-09-10T02:35:18.637Z,21.50
2022-09-10T02:37:45.259Z,21.60
2022-09-10T02:40:12.123Z,21.50
2022-09-10T02:42:38.891Z,21.50
2022-09-10T02:45:05.797Z,21.50
2022-09-10T02:47:32.387Z,21.50
2022-09-10T02:50:02.004Z,21.60
2022-09-10T02:52:29.265Z,21.50
2022-09-10T02:54:56.203Z,21.50
2022-09-10T02:57:22.894Z,21.50
2022-09-10T02:59:49.617Z,21.50
2022-09-10T03:02:16.495Z,21.50
2022-09-10T03:04:43.223Z,21.50
2022-09-10T03:07:09.880Z,21.50
2022-09-10T03:09:36.482Z,21.50
2022-09-10T03:12:03.146Z,21.50
2022-09-10T03:14:30.346Z,21.50
2022-09-10T03:16:58.257Z,21.50
2022-09-10T03:19:24.892Z,21.50
2022-09-10T03:21:52.975Z,21.50
2022-09-10T03:24:19.799Z,21.50
2022-09-10T03:26:46.470Z,21.50
2022-09-10T03:29:13.317Z,21.50
2022-09-10T03:31:40.131Z,21.50
2022-09-10T03:34:06.838Z,21.50
2022-09-10T03:36:34.267Z,21.50
2022-09-10T03:39:00.904Z,21.50
2022-09-10T03:41:28.490Z,21.50
2022-09-10T03:43:55.537Z,21.50
2022-09-10T03:46:22.768Z,21.50
2022-09-10T03:48:54.658Z,21.50
2022-09-10T03:51:23.236Z,21.50
2022-09-10T03:53:49.848Z,21.50
2022-09-10T03:56:20.048Z,21.50
2022-09-10T03:58:49.186Z,21.50
2022-09-10T04:01:16.528Z,21.50
2022-09-10T04:03:43.450Z,21.50
2022-09-10T04:06:13.945Z,21.50
2022-09-10T04:08:40.727Z,21.50
2022-09-10T04:11:07.353Z,21.50
2022-09-10T04:13:33.998Z,21.50
2022-09-10T04:16:00.802Z,21.50
2022-09-10T04:18:32.107Z,21.50
2022-09-10T04:20:58.754Z,21.50
2022-09-10T04:23:25.392Z,23.00
2022-09-10T04:25:53.060Z,21.50
2022-09-10T04:28:19.691Z,21.60
2022-09-10T04:30:47.094Z,21.50
2022-09-10T04:33:13.882Z,21.50
2022-09-10T04:35:40.555Z,21.50
2022-09-10T04:38:08.089Z,21.50
2022-09-10T04:40:34.890Z,21.60
2022-09-10T04:43:01.507Z,21.20
2022-09-10T04:45:28.925Z,21.50
2022-09-10T04:47:56.062Z,21.50
2022-09-10T04:50:22.920Z,21.50
2022-09-10T04:52:49.690Z,21.50
2022-09-10T04:55:16.322Z,21.50
2022-09-10T04:57:42.935Z,21.50
2022-09-10T05:00:10.136Z,21.50
2022-09-10T05:02:37.613Z,21.50
2022-09-10T05:05:04.456Z,21.50
2022-09-10T05:07:31.095Z,21.50
2022-09-10T05:09:57.749Z,21.50
2022-09-10T05:12:24.501Z,21.50
2022-09-10T05:14:51.174Z,21.50
2022-09-10T05:17:17.806Z,21.50
2022-09-10T05:19:44.411Z,21.50
2022-09-10T05:22:11.074Z,21.50
2022-09-10T05:24:37.707Z,21.50
2022-09-10T05:27:04.320Z,21.50
2022-09-10T05:29:30.945Z,21.50
2022-09-10T05:31:57.735Z,21.50
2022-09-10T05:34:24.675Z,21.50
2022-09-10T05:36:51.878Z,21.50
2022-09-10T05:39:18.481Z,21.40
2022-09-10T05:41:45.109Z,21.40
2022-09-10T05:44:11.773Z,21.50
2022-09-10T05:46:38.434Z,21.50
2022-09-10T05:49:05.047Z,21.50
2022-09-10T05:51:33.893Z,21.50
2022-09-10T05:54:00.625Z,21.50
2022-09-10T05:56:27.278Z,21.50
2022-09-10T05:58:53.957Z,21.50
2022-09-10T06:01:20.577Z,21.50
2022-09-10T06:03:47.574Z,21.50
2022-09-10T06:06:14.254Z,21.50
2022-09-10T06:08:40.965Z,21.50
2022-09-10T06:11:07.923Z,21.50
2022-09-10T06:13:35.241Z,21.50
2022-09-10T06:16:02.089Z,21.50
2022-09-10T06:18:28.824Z,21.50
2022-09-10T06:21:09.044Z,21.40
2022-09-10T06:23:39.309Z,21.50
2022-09-10T06:26:08.173Z,21.40
2022-09-10T06:28:35.167Z,21.50
2022-09-10T06:31:04.412Z,21.50
2022-09-10T06:33:31.441Z,21.50
2022-09-10T06:35:59.176Z,21.50
2022-09-10T06:38:28.371Z,21.60
2022-09-10T06:40:56.025Z,21.60
2022-09-10T06:43:26.223Z,21.60
2022-09-10T06:45:53.549Z,21.60
2022-09-10T06:48:39.088Z,21.60
2022-09-10T06:51:08.196Z,21.50
2022-09-10T06:53:35.262Z,21.50
2022-09-10T06:56:02.010Z,21.50
2022-09-10T06:58:30.645Z,21.50
2022-09-10T07:00:57.379Z,21.50
2022-09-10T07:03:24.146Z,21.50
2022-09-10T07:05:53.442Z,21.50
2022-09-10T07:08:21.075Z,21.50
2022-09-10T07:10:47.694Z,21.50
2022-09-10T07:13:14.330Z,21.50
2022-09-10T07:15:47.334Z,21.50
2022-09-10T07:18:16.931Z,21.50
2022-09-10T07:20:45.173Z,21.60
2022-09-10T07:23:12.895Z,21.50
2022-09-10T07:25:40.686Z,21.60
2022-09-10T07:28:13.158Z,21.60
2022-09-10T07:30:40.849Z,21.60
2022-09-10T07:33:08.117Z,21.60
2022-09-10T07:35:35.628Z,21.60
2022-09-10T07:38:03.646Z,21.60
2022-09-10T07:40:30.934Z,21.60
2022-09-10T07:42:59.211Z,21.60
2022-09-10T07:45:26.580Z,21.50
2022-09-10T07:47:53.252Z,21.60
2022-09-10T07:50:20.225Z,21.80
2022-09-10T07:52:47.006Z,21.60
2022-09-10T07:55:14.038Z,21.60
2022-09-10T07:57:41.005Z,21.60
2022-09-10T08:00:12.350Z,21.60
2022-09-10T08:02:39.366Z,21.60
2022-09-10T08:05:06.302Z,21.60
2022-09-10T08:07:32.917Z,21.60
2022-09-10T08:09:59.530Z,21.60
2022-09-10T08:12:26.122Z,21.50
2022-09-10T08:14:52.724Z,21.60
2022-09-10T08:17:19.370Z,21.60
2022-09-10T08:19:46.054Z,21.60
2022-09-10T08:22:14.187Z,21.60
2022-09-10T08:24:40.866Z,21.70
2022-09-10T08:27:07.478Z,21.60
2022-09-10T08:29:35.030Z,21.70
2022-09-10T08:32:01.713Z,21.70
2022-09-10T08:34:28.935Z,21.70
2022-09-10T08:36:55.585Z,21.70
2022-09-10T08:39:22.190Z,21.70
2022-09-10T08:41:56.127Z,21.70
2022-09-10T08:44:29.035Z,21.70
2022-09-10T08:47:34.476Z,21.70
2022-09-10T08:50:03.648Z,21.70
2022-09-10T08:52:41.810Z,21.80
2022-09-10T08:55:17.527Z,21.80
2022-09-10T08:57:54.600Z,21.80
2022-09-10T09:00:25.606Z,21.90
2022-09-10T09:03:05.969Z,21.90
2022-09-10T09:05:38.781Z,21.90
2022-09-10T09:08:06.250Z,21.90
2022-09-10T09:10:39.226Z,21.90
2022-09-10T09:13:15.290Z,21.90
2022-09-10T09:15:49.686Z,21.90
2022-09-10T09:18:26.006Z,21.80
2022-09-10T09:20:57.458Z,21.90
2022-09-10T09:23:27.298Z,21.90
2022-09-10T09:25:58.979Z,21.90
2022-09-10T09:28:26.075Z,21.90
2022-09-10T09:30:53.912Z,21.90
2022-09-10T09:33:22.653Z,21.90
2022-09-10T09:35:54.199Z,21.90
2022-09-10T09:38:23.802Z,21.90
2022-09-10T09:41:00.921Z,21.90
2022-09-10T09:43:31.319Z,21.90
2022-09-10T09:45:58.147Z,21.90
2022-09-10T09:48:24.958Z,21.80
2022-09-10T09:50:53.684Z,21.80
2022-09-10T09:53:25.285Z,21.90
2022-09-10T09:55:56.356Z,21.80
2022-09-10T09:58:32.243Z,21.80
2022-09-10T10:01:04.923Z,21.80
2022-09-10T10:03:35.384Z,21.80
2022-09-10T10:06:03.530Z,21.80
2022-09-10T10:08:32.213Z,21.80
2022-09-10T10:10:59.191Z,21.80
2022-09-10T10:13:34.785Z,21.80
2022-09-10T10:16:13.660Z,21.80
2022-09-10T10:18:42.010Z,21.70
2022-09-10T10:21:12.415Z,21.80
2022-09-10T10:23:39.201Z,21.70
2022-09-10T10:26:24.036Z,21.70
2022-09-10T10:28:52.014Z,21.70
2022-09-10T10:31:19.286Z,21.70
2022-09-10T10:33:52.579Z,21.70
2022-09-10T10:36:25.202Z,21.70
2022-09-10T10:38:55.521Z,21.70
2022-09-10T10:41:32.338Z,21.70
2022-09-10T10:44:11.420Z,21.70
2022-09-10T10:46:44.570Z,21.70
2022-09-10T10:49:26.972Z,21.70
2022-09-10T10:52:01.853Z,21.70
2022-09-10T10:54:48.714Z,21.70
2022-09-10T10:57:15.302Z,21.80
2022-09-10T10:59:47.586Z,21.80
2022-09-10T11:02:16.887Z,21.80
2022-09-10T11:04:50.980Z,21.80
2022-09-10T11:07:31.210Z,21.80
2022-09-10T11:10:11.473Z,21.80
2022-09-10T11:12:44.789Z,21.80
2022-09-10T11:15:17.497Z,21.80
2022-09-10T11:18:13.470Z,21.80
2022-09-10T11:21:06.831Z,21.80
2022-09-10T11:23:45.330Z,21.80
2022-09-10T11:26:12.342Z,21.80
2022-09-10T11:28:47.405Z,21.80
2022-09-10T11:31:30.368Z,21.80
2022-09-10T11:33:59.739Z,21.80
2022-09-10T11:36:42.279Z,21.80
2022-09-10T11:39:14.310Z,21.80
2022-09-10T11:41:42.303Z,21.80
2022-09-10T11:44:30.099Z,21.80
2022-09-10T11:47:02.833Z,21.80
2022-09-10T11:49:29.535Z,21.80
2022-09-10T11:51:57.030Z,21.80
2022-09-10T11:54:31.634Z,21.80
2022-09-10T11:57:06.578Z,21.70
2022-09-10T11:59:36.733Z,21.70
2022-09-10T12:02:20.926Z,21.80
2022-09-10T12:04:47.841Z,21.80
2022-09-10T12:07:19.802Z,21.80
2022-09-10T12:09:54.913Z,21.80
2022-09-10T12:12:33.497Z,21.80
2022-09-10T12:15:00.707Z,21.80
2022-09-10T12:17:33.139Z,21.80
2022-09-10T12:20:01.630Z,21.80
2022-09-10T12:22:30.867Z,21.80
2022-09-10T12:25:02.122Z,21.80
2022-09-10T12:27:47.254Z,21.80
2022-09-10T12:30:33.536Z,21.80
2022-09-10T12:33:01.911Z,21.80
2022-09-10T12:35:31.489Z,21.70
2022-09-10T12:38:17.388Z,21.70
2022-09-10T12:40:45.037Z,21.70
2022-09-10T12:43:30.362Z,21.80
2022-09-10T12:46:01.221Z,21.70
2022-09-10T12:48:29.291Z,21.70
2022-09-10T12:50:57.739Z,21.70
2022-09-10T12:53:37.441Z,21.70
2022-09-10T12:56:07.193Z,21.70
2022-09-10T12:58:54.266Z,21.70
2022-09-10T13:01:30.099Z,21.70
2022-09-10T13:03:58.606Z,21.80
2022-09-10T13:06:35.891Z,21.80
2022-09-10T13:09:04.102Z,21.70
2022-09-10T13:11:33.491Z,21.80
2022-09-10T13:14:02.531Z,21.70
2022-09-10T13:16:29.266Z,21.80
2022-09-10T13:19:14.133Z,21.60
2022-09-10T13:21:40.703Z,21.70
2022-09-10T13:24:32.295Z,21.80
2022-09-10T13:27:08.402Z,21.80
2022-09-10T13:29:38.526Z,21.70
2022-09-10T13:32:14.158Z,21.70
2022-09-10T13:34:59.210Z,21.70
2022-09-10T13:37:42.382Z,21.70
2022-09-10T13:40:09.048Z,20.50
2022-09-10T13:42:57.085Z,21.70
2022-09-10T13:45:29.978Z,21.70
2022-09-10T13:48:02.411Z,21.70
2022-09-10T13:50:40.746Z,21.70
2022-09-10T13:53:08.924Z,21.70
2022-09-10T13:55:35.645Z,21.70
2022-09-10T13:58:14.686Z,21.70
2022-09-10T14:00:48.352Z,21.70
2022-09-10T14:03:16.665Z,21.80
2022-09-10T14:05:48.341Z,21.70
2022-09-10T14:08:21.183Z,21.70
2022-09-10T14:10:49.572Z,21.60
2022-09-10T14:13:20.033Z,21.70
2022-09-10T14:15:47.156Z,21.60
2022-09-10T14:18:13.904Z,21.70
2022-09-10T14:20:40.638Z,21.60
2022-09-10T14:23:12.697Z,21.60
2022-09-10T14:25:41.078Z,21.60
2022-09-10T14:28:16.587Z,21.60
2022-09-10T14:30:47.845Z,21.60
2022-09-10T14:33:21.432Z,21.60
2022-09-10T14:35:51.452Z,21.60
2022-09-10T14:38:31.397Z,21.70
2022-09-10T14:40:59.218Z,21.70
2022-09-10T14:43:27.894Z,21.80
2022-09-10T14:45:54.627Z,21.80
2022-09-10T14:48:33.610Z,21.90
2022-09-10T14:51:15.721Z,21.90
2022-09-10T14:53:43.077Z,21.90
2022-09-10T14:56:16.867Z,21.80
2022-09-10T14:58:45.972Z,21.90
2022-09-10T15:01:12.638Z,22.00
2022-09-10T15:03:40.776Z,21.90
2022-09-10T15:06:09.423Z,21.90
2022-09-10T15:08:36.050Z,21.90
2022-09-10T15:11:04.129Z,21.90
2022-09-10T15:13:32.037Z,21.90
2022-09-10T15:15:58.812Z,21.90
2022-09-10T15:18:25.443Z,21.90
2022-09-10T15:20:52.533Z,21.90
2022-09-10T15:23:21.726Z,21.90
2022-09-10T15:25:50.521Z,21.90
2022-09-10T15:28:17.194Z,21.90
2022-09-10T15:30:43.848Z,21.90
2022-09-10T15:33:12.461Z,21.90
2022-09-10T15:35:39.135Z,21.90
2022-09-10T15:38:06.067Z,21.90
2022-09-10T15:40:32.699Z,21.90
2022-09-10T15:42:59.385Z,21.90
2022-09-10T15:45:26.922Z,21.80
2022-09-10T15:47:54.877Z,21.90
2022-09-10T15:50:21.569Z,21.80
2022-09-10T15:52:48.257Z,21.80
2022-09-10T15:55:15.009Z,21.80
2022-09-10T15:57:41.657Z,21.80
2022-09-10T16:00:08.654Z,21.80
2022-09-10T16:02:35.389Z,21.80
2022-09-10T16:05:02.116Z,21.80
2022-09-10T16:07:29.503Z,21.80
2022-09-10T16:09:57.334Z,21.80
2022-09-10T16:12:26.103Z,21.80
2022-09-10T16:14:53.383Z,21.80
2022-09-10T16:17:20.269Z,21.80
2022-09-10T16:19:47.340Z,21.80
2022-09-10T16:22:16.449Z,21.80
2022-09-10T16:24:46.652Z,21.80
2022-09-10T16:27:13.281Z,21.90
2022-09-10T16:29:43.526Z,21.80
2022-09-10T16:32:10.806Z,21.80
2022-09-10T16:34:38.603Z,21.80
2022-09-10T16:37:05.551Z,21.80
2022-09-10T16:39:32.178Z,21.80
2022-09-10T16:41:58.888Z,21.80
2022-09-10T16:44:25.511Z,21.80
2022-09-10T16:46:52.520Z,21.70
2022-09-10T16:49:19.770Z,21.70
2022-09-10T16:51:47.406Z,21.70
2022-09-10T16:54:14.570Z,21.70
2022-09-10T16:56:42.259Z,21.80
2022-09-10T16:59:14.902Z,21.70
2022-09-10T17:01:43.818Z,21.70
2022-09-10T17:04:18.051Z,21.70
2022-09-10T17:06:46.128Z,21.60
2022-09-10T17:09:13.347Z,21.70
2022-09-10T17:11:41.376Z,21.70
2022-09-10T17:14:08.314Z,21.70
2022-09-10T17:16:39.208Z,21.70
2022-09-10T17:19:16.817Z,21.70
2022-09-10T17:21:44.646Z,21.70
2022-09-10T17:24:12.848Z,21.70
2022-09-10T17:26:40.244Z,21.70
2022-09-10T17:29:11.055Z,21.70
2022-09-10T17:31:37.695Z,21.70
2022-09-10T17:34:04.585Z,21.80
2022-09-10T17:36:31.938Z,21.70
2022-09-10T17:38:59.283Z,21.70
2022-09-10T17:41:29.755Z,21.70
2022-09-10T17:43:57.826Z,21.70
2022-09-10T17:46:24.554Z,21.70
2022-09-10T17:48:51.390Z,21.70
2022-09-10T17:51:21.125Z,21.70
2022-09-10T17:53:47.832Z,21.60
2022-09-10T17:56:15.463Z,21.70
2022-09-10T17:58:42.308Z,21.70
2022-09-10T18:01:12.590Z,21.60
2022-09-10T18:03:39.934Z,21.60
2022-09-10T18:06:08.759Z,21.70
2022-09-10T18:08:35.997Z,21.70
2022-09-10T18:11:07.372Z,21.60
2022-09-10T18:13:34.831Z,21.60
2022-09-10T18:16:21.857Z,21.70
2022-09-10T18:18:55.764Z,21.60
2022-09-10T18:21:24.219Z,21.60
2022-09-10T18:23:54.987Z,21.70
2022-09-10T18:26:22.975Z,21.60
2022-09-10T18:28:57.290Z,21.70
2022-09-10T18:31:24.594Z,21.60
2022-09-10T18:33:51.343Z,21.60
2022-09-10T18:36:18.628Z,21.60
2022-09-10T18:38:45.421Z,21.60
2022-09-10T18:41:19.312Z,21.60
2022-09-10T18:43:46.579Z,21.60
2022-09-10T18:46:14.931Z,21.60
2022-09-10T18:48:42.028Z,21.60
2022-09-10T18:51:10.683Z,21.60
2022-09-10T18:53:38.317Z,21.60
2022-09-10T18:56:09.908Z,21.60
2022-09-10T18:58:36.799Z,21.60
2022-09-10T19:01:04.530Z,21.60
2022-09-10T19:03:35.543Z,21.50
2022-09-10T19:06:04.329Z,21.60
2022-09-10T19:08:30.962Z,21.60
2022-09-10T19:10:58.885Z,21.50
2022-09-10T19:13:25.545Z,21.60
2022-09-10T19:15:55.995Z,21.50
2022-09-10T19:18:22.621Z,21.50
2022-09-10T19:20:49.587Z,21.50
2022-09-10T19:23:19.667Z,21.50
2022-09-10T19:25:50.650Z,21.50
2022-09-10T19:28:17.342Z,21.50
2022-09-10T19:30:44.161Z,21.50
2022-09-10T19:33:11.171Z,21.60
2022-09-10T19:35:38.079Z,21.60
2022-09-10T19:38:21.058Z,21.60
2022-09-10T19:41:02.453Z,21.60
2022-09-10T19:43:29.158Z,21.60
2022-09-10T19:45:56.315Z,21.70
2022-09-10T19:48:23.667Z,21.70
2022-09-10T19:50:50.295Z,21.70
2022-09-10T19:53:16.962Z,21.90
2022-09-10T19:55:43.926Z,21.70
2022-09-10T19:58:10.650Z,21.70
2022-09-10T20:00:46.852Z,21.60
2022-09-10T20:03:14.508Z,21.70
2022-09-10T20:05:42.672Z,21.70
2022-09-10T20:08:09.865Z,21.80
2022-09-10T20:10:37.219Z,21.70
2022-09-10T20:13:04.750Z,21.70
2022-09-10T20:15:32.268Z,21.70
2022-09-10T20:17:59.005Z,21.70
2022-09-10T20:20:25.615Z,21.70
2022-09-10T20:22:52.206Z,21.70
2022-09-10T20:25:18.798Z,21.80
2022-09-10T20:27:45.423Z,21.70
2022-09-10T20:30:12.163Z,21.70
2022-09-10T20:32:38.879Z,21.70
2022-09-10T20:35:05.853Z,21.70
2022-09-10T20:37:32.797Z,21.70
2022-09-10T20:40:00.000Z,21.70
2022-09-10T20:42:27.893Z,21.70
2022-09-10T20:44:55.484Z,21.60
2022-09-10T20:47:24.266Z,21.70
2022-09-10T20:49:50.922Z,21.60
2022-09-10T20:52:18.337Z,21.60
2022-09-10T20:54:45.070Z,21.60
2022-09-10T20:57:11.784Z,21.60
2022-09-10T20:59:39.874Z,21.60
2022-09-10T21:02:08.130Z,21.60
2022-09-10T21:04:34.848Z,21.60
2022-09-10T21:07:01.477Z,21.60
2022-09-10T21:09:28.172Z,21.60
2022-09-10T21:11:54.962Z,21.60
2022-09-10T21:14:21.625Z,21.60
2022-09-10T21:16:48.271Z,21.60
2022-09-10T21:19:16.089Z,21.40
2022-09-10T21:21:43.636Z,21.60
2022-09-10T21:24:14.598Z,21.60
2022-09-10T21:26:42.966Z,21.60
2022-09-10T21:29:14.418Z,21.60
2022-09-10T21:31:41.466Z,21.50
2022-09-10T21:34:08.363Z,21.50
2022-09-10T21:36:35.926Z,21.50
2022-09-10T21:39:04.231Z,21.60
2022-09-10T21:41:32.251Z,21.50
2022-09-10T21:43:59.859Z,21.50
2022-09-10T21:46:27.445Z,21.60
2022-09-10T21:48:54.156Z,21.50
2022-09-10T21:51:21.273Z,21.50
2022-09-10T21:53:48.251Z,21.50
2022-09-10T21:56:15.795Z,20.40
2022-09-10T21:58:43.331Z,21.50
2022-09-10T22:01:20.206Z,21.50
2022-09-10T22:03:47.474Z,21.50
2022-09-10T22:06:17.085Z,21.50
2022-09-10T22:08:44.358Z,21.50
2022-09-10T22:11:14.292Z,21.40
2022-09-10T22:13:42.163Z,21.50
2022-09-10T22:16:09.515Z,21.60
2022-09-10T22:18:36.870Z,21.60
2022-09-10T22:21:03.609Z,21.60
2022-09-10T22:23:31.391Z,21.60
2022-09-10T22:26:05.678Z,21.60
2022-09-10T22:28:34.909Z,21.60
2022-09-10T22:31:21.171Z,21.50
2022-09-10T22:33:51.627Z,21.60
2022-09-10T22:36:23.633Z,21.70
2022-09-10T22:38:51.345Z,21.60
2022-09-10T22:41:18.987Z,21.60
2022-09-10T22:43:45.962Z,21.60
2022-09-10T22:46:12.780Z,21.60
2022-09-10T22:48:40.697Z,21.60
2022-09-10T22:51:08.382Z,21.60
2022-09-10T22:53:35.282Z,21.60
2022-09-10T22:56:02.293Z,21.60
2022-09-10T22:58:28.918Z,21.60
2022-09-10T23:00:56.045Z,21.60
2022-09-10T23:03:22.762Z,21.60
2022-09-10T23:05:49.513Z,21.60
2022-09-10T23:08:17.098Z,21.60
2022-09-10T23:10:43.758Z,21.60
2022-09-10T23:13:10.401Z,21.60
2022-09-10T23:15:37.018Z,21.60
2022-09-10T23:18:03.651Z,21.60
2022-09-10T23:20:30.990Z,21.60
2022-09-10T23:22:57.590Z,21.60
2022-09-10T23:25:24.251Z,21.60
2022-09-10T23:27:51.337Z,21.50
2022-09-10T23:30:18.279Z,21.30
2022-09-10T23:32:45.222Z,21.50
2022-09-10T23:35:11.947Z,21.50
2022-09-10T23:37:38.650Z,21.50
2022-09-10T23:40:05.980Z,21.50
2022-09-10T23:42:33.354Z,21.50
2022-09-10T23:44:59.968Z,21.50
2022-09-10T23:47:27.040Z,21.50
2022-09-10T23:49:53.720Z,21.50
2022-09-10T23:52:20.567Z,21.50
2022-09-10T23:54:47.444Z,21.50
2022-09-10T23:57:14.110Z,21.50
2022-09-10T23:59:41.055Z,21.50
